sensor_id;sensor_type;location;lat;lon;timestamp;P1;durP1;ratioP1;P2;durP2;ratioP2
36105;SDS011;22159;55.736;38.048;2023-02-21T00:00:59;7.90;;;7.10;;
36105;SDS011;22159;55.736;38.048;2023-02-21T00:03:43;8.38;;;6.80;;
36105;SDS011;22159;55.736;38.048;2023-02-21T00:09:32;7.72;;;6.93;;
36105;SDS011;22159;55.736;38.048;2023-02-21T00:12:16;7.55;;;6.50;;
36105;SDS011;22159;55.736;38.048;2023-02-21T00:15:01;8.60;;;7.40;;
36105;SDS011;22159;55.736;38.048;2023-02-21T00:17:45;7.82;;;6.95;;
36105;SDS011;22159;55.736;38.048;2023-02-21T00:20:30;7.82;;;7.03;;
36105;SDS011;22159;55.736;38.048;2023-02-21T00:23:15;7.97;;;7.18;;
36105;SDS011;22159;55.736;38.048;2023-02-21T00:25:59;8.30;;;7.43;;
36105;SDS011;22159;55.736;38.048;2023-02-21T00:28:44;7.75;;;6.95;;
36105;SDS011;22159;55.736;38.048;2023-02-21T00:31:28;8.77;;;7.43;;
36105;SDS011;22159;55.736;38.048;2023-02-21T00:34:13;8.35;;;7.03;;
36105;SDS011;22159;55.736;38.048;2023-02-21T00:36:58;8.23;;;7.43;;
36105;SDS011;22159;55.736;38.048;2023-02-21T00:39:42;7.95;;;6.90;;
36105;SDS011;22159;55.736;38.048;2023-02-21T00:42:27;8.45;;;7.35;;
36105;SDS011;22159;55.736;38.048;2023-02-21T00:45:11;8.20;;;7.40;;
36105;SDS011;22159;55.736;38.048;2023-02-21T00:47:56;7.35;;;6.65;;
36105;SDS011;22159;55.736;38.048;2023-02-21T00:50:40;7.85;;;6.75;;
36105;SDS011;22159;55.736;38.048;2023-02-21T00:53:25;7.38;;;6.53;;
36105;SDS011;22159;55.736;38.048;2023-02-21T00:56:09;7.50;;;6.80;;
36105;SDS011;22159;55.736;38.048;2023-02-21T00:58:54;7.97;;;7.18;;
36105;SDS011;22159;55.736;38.048;2023-02-21T01:01:38;8.05;;;7.25;;
36105;SDS011;22159;55.736;38.048;2023-02-21T01:04:23;7.60;;;6.72;;
36105;SDS011;22159;55.736;38.048;2023-02-21T01:07:07;7.40;;;6.68;;
36105;SDS011;22159;55.736;38.048;2023-02-21T01:09:52;7.65;;;6.85;;
36105;SDS011;22159;55.736;38.048;2023-02-21T01:12:36;7.50;;;6.80;;
36105;SDS011;22159;55.736;38.048;2023-02-21T01:15:21;8.32;;;7.53;;
36105;SDS011;22159;55.736;38.048;2023-02-21T01:18:06;7.90;;;7.03;;
36105;SDS011;22159;55.736;38.048;2023-02-21T01:20:50;7.38;;;6.68;;
36105;SDS011;22159;55.736;38.048;2023-02-21T01:23:35;7.38;;;6.57;;
36105;SDS011;22159;55.736;38.048;2023-02-21T01:26:19;8.05;;;7.25;;
36105;SDS011;22159;55.736;38.048;2023-02-21T01:29:04;7.22;;;6.53;;
36105;SDS011;22159;55.736;38.048;2023-02-21T01:31:49;7.47;;;6.78;;
36105;SDS011;22159;55.736;38.048;2023-02-21T01:34:33;7.95;;;7.15;;
36105;SDS011;22159;55.736;38.048;2023-02-21T01:37:18;7.32;;;6.55;;
36105;SDS011;22159;55.736;38.048;2023-02-21T01:40:02;8.40;;;6.60;;
36105;SDS011;22159;55.736;38.048;2023-02-21T01:42:47;7.20;;;6.50;;
36105;SDS011;22159;55.736;38.048;2023-02-21T01:48:20;7.10;;;6.00;;
36105;SDS011;22159;55.736;38.048;2023-02-21T01:51:06;7.35;;;6.13;;
36105;SDS011;22159;55.736;38.048;2023-02-21T01:53:51;7.13;;;6.43;;
36105;SDS011;22159;55.736;38.048;2023-02-21T01:56:36;7.25;;;6.55;;
36105;SDS011;22159;55.736;38.048;2023-02-21T01:59:22;7.80;;;7.05;;
36105;SDS011;22159;55.736;38.048;2023-02-21T02:05:01;6.38;;;5.78;;
36105;SDS011;22159;55.736;38.048;2023-02-21T02:07:46;7.05;;;6.35;;
36105;SDS011;22159;55.736;38.048;2023-02-21T02:10:31;7.70;;;6.63;;
36105;SDS011;22159;55.736;38.048;2023-02-21T02:15:55;7.30;;;6.60;;
36105;SDS011;22159;55.736;38.048;2023-02-21T02:22:15;7.18;;;6.47;;
36105;SDS011;22159;55.736;38.048;2023-02-21T02:29:09;6.78;;;6.07;;
36105;SDS011;22159;55.736;38.048;2023-02-21T02:37:13;7.50;;;6.72;;
36105;SDS011;22159;55.736;38.048;2023-02-21T02:42:22;7.32;;;6.65;;
36105;SDS011;22159;55.736;38.048;2023-02-21T02:45:02;7.28;;;6.57;;
36105;SDS011;22159;55.736;38.048;2023-02-21T02:47:32;7.55;;;6.82;;
36105;SDS011;22159;55.736;38.048;2023-02-21T02:49:59;7.70;;;6.88;;
36105;SDS011;22159;55.736;38.048;2023-02-21T02:52:25;7.47;;;6.78;;
36105;SDS011;22159;55.736;38.048;2023-02-21T02:54:58;7.78;;;6.97;;
36105;SDS011;22159;55.736;38.048;2023-02-21T02:57:24;6.72;;;6.10;;
36105;SDS011;22159;55.736;38.048;2023-02-21T02:59:51;7.70;;;6.90;;
36105;SDS011;22159;55.736;38.048;2023-02-21T03:04:47;7.07;;;6.38;;
36105;SDS011;22159;55.736;38.048;2023-02-21T03:10:08;7.20;;;6.50;;
36105;SDS011;22159;55.736;38.048;2023-02-21T03:15:37;7.53;;;6.70;;
36105;SDS011;22159;55.736;38.048;2023-02-21T03:18:07;7.25;;;6.63;;
36105;SDS011;22159;55.736;38.048;2023-02-21T03:20:34;7.35;;;6.65;;
36105;SDS011;22159;55.736;38.048;2023-02-21T03:23:02;8.02;;;7.20;;
36105;SDS011;22159;55.736;38.048;2023-02-21T03:25:29;7.07;;;6.38;;
36105;SDS011;22159;55.736;38.048;2023-02-21T03:27:56;7.80;;;6.90;;
36105;SDS011;22159;55.736;38.048;2023-02-21T03:30:24;7.47;;;6.68;;
36105;SDS011;22159;55.736;38.048;2023-02-21T03:32:50;7.38;;;6.68;;
36105;SDS011;22159;55.736;38.048;2023-02-21T03:35:18;8.27;;;6.88;;
36105;SDS011;22159;55.736;38.048;2023-02-21T03:37:46;7.20;;;6.47;;
36105;SDS011;22159;55.736;38.048;2023-02-21T03:40:22;7.88;;;6.43;;
36105;SDS011;22159;55.736;38.048;2023-02-21T03:42:49;7.40;;;6.47;;
36105;SDS011;22159;55.736;38.048;2023-02-21T03:45:15;7.50;;;6.60;;
36105;SDS011;22159;55.736;38.048;2023-02-21T03:47:41;7.00;;;6.30;;
36105;SDS011;22159;55.736;38.048;2023-02-21T03:50:07;7.07;;;6.38;;
36105;SDS011;22159;55.736;38.048;2023-02-21T03:52:33;7.50;;;6.80;;
36105;SDS011;22159;55.736;38.048;2023-02-21T03:54:59;7.07;;;6.38;;
36105;SDS011;22159;55.736;38.048;2023-02-21T03:57:25;8.00;;;6.97;;
36105;SDS011;22159;55.736;38.048;2023-02-21T03:59:51;7.30;;;6.60;;
36105;SDS011;22159;55.736;38.048;2023-02-21T04:02:17;9.68;;;6.40;;
36105;SDS011;22159;55.736;38.048;2023-02-21T04:04:44;7.30;;;6.15;;
36105;SDS011;22159;55.736;38.048;2023-02-21T04:07:12;7.65;;;6.78;;
36105;SDS011;22159;55.736;38.048;2023-02-21T04:09:38;7.85;;;6.43;;
36105;SDS011;22159;55.736;38.048;2023-02-21T04:12:04;8.13;;;6.38;;
36105;SDS011;22159;55.736;38.048;2023-02-21T04:14:30;6.40;;;5.68;;
36105;SDS011;22159;55.736;38.048;2023-02-21T04:16:56;7.53;;;6.53;;
36105;SDS011;22159;55.736;38.048;2023-02-21T04:19:22;7.22;;;6.30;;
36105;SDS011;22159;55.736;38.048;2023-02-21T04:21:48;7.20;;;6.43;;
36105;SDS011;22159;55.736;38.048;2023-02-21T04:24:14;8.60;;;6.18;;
36105;SDS011;22159;55.736;38.048;2023-02-21T04:26:40;6.63;;;5.97;;
36105;SDS011;22159;55.736;38.048;2023-02-21T04:29:06;8.13;;;6.30;;
36105;SDS011;22159;55.736;38.048;2023-02-21T04:31:33;7.30;;;6.45;;
36105;SDS011;22159;55.736;38.048;2023-02-21T04:33:59;6.50;;;5.88;;
36105;SDS011;22159;55.736;38.048;2023-02-21T04:36:25;7.15;;;6.45;;
36105;SDS011;22159;55.736;38.048;2023-02-21T04:38:51;8.02;;;5.90;;
36105;SDS011;22159;55.736;38.048;2023-02-21T04:41:17;6.88;;;6.28;;
36105;SDS011;22159;55.736;38.048;2023-02-21T04:43:44;7.13;;;6.28;;
36105;SDS011;22159;55.736;38.048;2023-02-21T04:46:10;6.85;;;6.15;;
36105;SDS011;22159;55.736;38.048;2023-02-21T04:48:40;6.63;;;5.95;;
36105;SDS011;22159;55.736;38.048;2023-02-21T04:51:06;9.75;;;6.15;;
36105;SDS011;22159;55.736;38.048;2023-02-21T04:53:32;7.03;;;6.32;;
36105;SDS011;22159;55.736;38.048;2023-02-21T04:55:58;7.00;;;6.20;;
36105;SDS011;22159;55.736;38.048;2023-02-21T04:58:24;6.72;;;6.07;;
36105;SDS011;22159;55.736;38.048;2023-02-21T05:00:50;6.70;;;6.00;;
36105;SDS011;22159;55.736;38.048;2023-02-21T05:03:16;6.85;;;6.15;;
36105;SDS011;22159;55.736;38.048;2023-02-21T05:05:43;6.68;;;6.05;;
36105;SDS011;22159;55.736;38.048;2023-02-21T05:08:09;6.28;;;5.55;;
36105;SDS011;22159;55.736;38.048;2023-02-21T05:10:35;6.57;;;5.82;;
36105;SDS011;22159;55.736;38.048;2023-02-21T05:13:01;6.55;;;5.70;;
36105;SDS011;22159;55.736;38.048;2023-02-21T05:15:27;6.40;;;5.80;;
36105;SDS011;22159;55.736;38.048;2023-02-21T05:17:53;6.63;;;5.18;;
36105;SDS011;22159;55.736;38.048;2023-02-21T05:20:19;6.13;;;5.53;;
36105;SDS011;22159;55.736;38.048;2023-02-21T05:22:45;8.00;;;5.82;;
36105;SDS011;22159;55.736;38.048;2023-02-21T05:25:13;7.25;;;5.53;;
36105;SDS011;22159;55.736;38.048;2023-02-21T05:27:40;8.63;;;6.00;;
36105;SDS011;22159;55.736;38.048;2023-02-21T05:30:06;9.20;;;5.93;;
36105;SDS011;22159;55.736;38.048;2023-02-21T05:32:32;6.50;;;5.70;;
36105;SDS011;22159;55.736;38.048;2023-02-21T05:34:58;6.40;;;5.78;;
36105;SDS011;22159;55.736;38.048;2023-02-21T05:37:24;6.95;;;5.57;;
36105;SDS011;22159;55.736;38.048;2023-02-21T05:39:50;7.43;;;5.75;;
36105;SDS011;22159;55.736;38.048;2023-02-21T05:42:16;7.80;;;6.00;;
36105;SDS011;22159;55.736;38.048;2023-02-21T05:44:43;8.35;;;5.78;;
36105;SDS011;22159;55.736;38.048;2023-02-21T05:47:09;8.90;;;5.93;;
36105;SDS011;22159;55.736;38.048;2023-02-21T05:49:35;7.03;;;5.90;;
36105;SDS011;22159;55.736;38.048;2023-02-21T05:52:01;7.35;;;5.75;;
36105;SDS011;22159;55.736;38.048;2023-02-21T05:54:29;7.80;;;5.82;;
36105;SDS011;22159;55.736;38.048;2023-02-21T05:56:55;10.55;;;6.15;;
36105;SDS011;22159;55.736;38.048;2023-02-21T05:59:21;6.80;;;5.40;;
36105;SDS011;22159;55.736;38.048;2023-02-21T06:01:48;7.95;;;5.43;;
36105;SDS011;22159;55.736;38.048;2023-02-21T06:04:15;7.45;;;6.65;;
36105;SDS011;22159;55.736;38.048;2023-02-21T06:06:41;7.05;;;6.15;;
36105;SDS011;22159;55.736;38.048;2023-02-21T06:09:07;6.68;;;5.60;;
36105;SDS011;22159;55.736;38.048;2023-02-21T06:11:34;7.47;;;5.57;;
36105;SDS011;22159;55.736;38.048;2023-02-21T06:14:02;9.18;;;5.53;;
36105;SDS011;22159;55.736;38.048;2023-02-21T06:16:31;5.95;;;4.90;;
36105;SDS011;22159;55.736;38.048;2023-02-21T06:18:58;5.90;;;4.95;;
36105;SDS011;22159;55.736;38.048;2023-02-21T06:21:24;7.25;;;5.40;;
36105;SDS011;22159;55.736;38.048;2023-02-21T06:23:50;6.00;;;4.60;;
36105;SDS011;22159;55.736;38.048;2023-02-21T06:26:17;7.63;;;5.30;;
36105;SDS011;22159;55.736;38.048;2023-02-21T06:28:43;5.43;;;4.65;;
36105;SDS011;22159;55.736;38.048;2023-02-21T06:31:09;8.43;;;5.25;;
36105;SDS011;22159;55.736;38.048;2023-02-21T06:33:35;5.32;;;4.75;;
36105;SDS011;22159;55.736;38.048;2023-02-21T06:36:05;6.03;;;5.28;;
36105;SDS011;22159;55.736;38.048;2023-02-21T06:38:31;6.32;;;4.90;;
36105;SDS011;22159;55.736;38.048;2023-02-21T06:40:58;5.22;;;4.70;;
36105;SDS011;22159;55.736;38.048;2023-02-21T06:43:24;5.63;;;4.72;;
36105;SDS011;22159;55.736;38.048;2023-02-21T06:45:50;4.93;;;4.43;;
36105;SDS011;22159;55.736;38.048;2023-02-21T06:48:16;5.85;;;4.60;;
36105;SDS011;22159;55.736;38.048;2023-02-21T06:50:42;5.53;;;4.97;;
36105;SDS011;22159;55.736;38.048;2023-02-21T06:53:08;5.15;;;4.43;;
36105;SDS011;22159;55.736;38.048;2023-02-21T06:55:34;5.25;;;4.75;;
36105;SDS011;22159;55.736;38.048;2023-02-21T06:58:00;4.93;;;4.38;;
36105;SDS011;22159;55.736;38.048;2023-02-21T07:00:26;5.32;;;4.45;;
36105;SDS011;22159;55.736;38.048;2023-02-21T07:02:52;5.28;;;4.40;;
36105;SDS011;22159;55.736;38.048;2023-02-21T07:05:18;4.57;;;4.05;;
36105;SDS011;22159;55.736;38.048;2023-02-21T07:07:45;6.10;;;4.60;;
36105;SDS011;22159;55.736;38.048;2023-02-21T07:10:11;5.55;;;4.38;;
36105;SDS011;22159;55.736;38.048;2023-02-21T07:12:37;5.75;;;4.75;;
36105;SDS011;22159;55.736;38.048;2023-02-21T07:15:04;4.75;;;4.25;;
36105;SDS011;22159;55.736;38.048;2023-02-21T07:17:30;4.82;;;4.25;;
36105;SDS011;22159;55.736;38.048;2023-02-21T07:19:56;5.85;;;4.60;;
36105;SDS011;22159;55.736;38.048;2023-02-21T07:22:22;5.47;;;4.60;;
36105;SDS011;22159;55.736;38.048;2023-02-21T07:24:52;5.53;;;4.40;;
36105;SDS011;22159;55.736;38.048;2023-02-21T07:27:19;4.88;;;4.40;;
36105;SDS011;22159;55.736;38.048;2023-02-21T07:29:45;4.65;;;4.15;;
36105;SDS011;22159;55.736;38.048;2023-02-21T07:32:12;4.78;;;4.05;;
36105;SDS011;22159;55.736;38.048;2023-02-21T07:34:38;6.32;;;4.13;;
36105;SDS011;22159;55.736;38.048;2023-02-21T07:37:04;4.55;;;3.85;;
36105;SDS011;22159;55.736;38.048;2023-02-21T07:39:30;5.32;;;4.40;;
36105;SDS011;22159;55.736;38.048;2023-02-21T07:41:56;4.18;;;3.80;;
36105;SDS011;22159;55.736;38.048;2023-02-21T07:44:22;4.22;;;3.83;;
36105;SDS011;22159;55.736;38.048;2023-02-21T07:46:48;5.63;;;4.35;;
36105;SDS011;22159;55.736;38.048;2023-02-21T07:49:14;4.40;;;3.80;;
36105;SDS011;22159;55.736;38.048;2023-02-21T07:51:40;4.55;;;4.15;;
36105;SDS011;22159;55.736;38.048;2023-02-21T07:54:06;4.80;;;4.40;;
36105;SDS011;22159;55.736;38.048;2023-02-21T07:56:32;3.90;;;3.60;;
36105;SDS011;22159;55.736;38.048;2023-02-21T07:58:58;5.65;;;4.18;;
36105;SDS011;22159;55.736;38.048;2023-02-21T08:01:24;4.32;;;3.78;;
36105;SDS011;22159;55.736;38.048;2023-02-21T08:03:51;4.32;;;3.92;;
36105;SDS011;22159;55.736;38.048;2023-02-21T08:06:17;4.10;;;3.72;;
36105;SDS011;22159;55.736;38.048;2023-02-21T08:08:43;4.38;;;3.60;;
36105;SDS011;22159;55.736;38.048;2023-02-21T08:11:10;5.40;;;3.72;;
36105;SDS011;22159;55.736;38.048;2023-02-21T08:13:36;4.93;;;4.00;;
36105;SDS011;22159;55.736;38.048;2023-02-21T08:16:02;4.00;;;3.60;;
36105;SDS011;22159;55.736;38.048;2023-02-21T08:18:28;4.10;;;3.72;;
36105;SDS011;22159;55.736;38.048;2023-02-21T08:20:54;3.85;;;3.38;;
36105;SDS011;22159;55.736;38.048;2023-02-21T08:23:24;4.28;;;3.35;;
36105;SDS011;22159;55.736;38.048;2023-02-21T08:25:50;5.25;;;3.83;;
36105;SDS011;22159;55.736;38.048;2023-02-21T08:28:16;4.70;;;4.00;;
36105;SDS011;22159;55.736;38.048;2023-02-21T08:30:42;5.30;;;4.32;;
36105;SDS011;22159;55.736;38.048;2023-02-21T08:33:08;4.63;;;3.83;;
36105;SDS011;22159;55.736;38.048;2023-02-21T08:35:34;4.10;;;3.70;;
36105;SDS011;22159;55.736;38.048;2023-02-21T08:38:00;4.45;;;4.05;;
36105;SDS011;22159;55.736;38.048;2023-02-21T08:40:28;5.80;;;4.40;;
36105;SDS011;22159;55.736;38.048;2023-02-21T08:42:55;5.47;;;3.83;;
36105;SDS011;22159;55.736;38.048;2023-02-21T08:45:22;4.85;;;4.00;;
36105;SDS011;22159;55.736;38.048;2023-02-21T08:47:48;4.43;;;3.97;;
36105;SDS011;22159;55.736;38.048;2023-02-21T08:50:15;4.10;;;3.70;;
36105;SDS011;22159;55.736;38.048;2023-02-21T08:52:41;4.28;;;3.80;;
36105;SDS011;22159;55.736;38.048;2023-02-21T08:55:07;4.28;;;3.88;;
36105;SDS011;22159;55.736;38.048;2023-02-21T08:57:33;4.03;;;3.63;;
36105;SDS011;22159;55.736;38.048;2023-02-21T08:59:59;4.45;;;3.90;;
36105;SDS011;22159;55.736;38.048;2023-02-21T09:02:25;4.68;;;4.18;;
36105;SDS011;22159;55.736;38.048;2023-02-21T09:04:56;3.72;;;3.42;;
36105;SDS011;22159;55.736;38.048;2023-02-21T09:07:22;4.38;;;3.78;;
36105;SDS011;22159;55.736;38.048;2023-02-21T09:09:48;4.10;;;3.70;;
36105;SDS011;22159;55.736;38.048;2023-02-21T09:12:14;3.60;;;3.30;;
36105;SDS011;22159;55.736;38.048;2023-02-21T09:14:41;3.85;;;3.55;;
36105;SDS011;22159;55.736;38.048;2023-02-21T09:17:08;4.50;;;4.10;;
36105;SDS011;22159;55.736;38.048;2023-02-21T09:19:34;3.72;;;3.42;;
36105;SDS011;22159;55.736;38.048;2023-02-21T09:22:00;4.38;;;3.97;;
36105;SDS011;22159;55.736;38.048;2023-02-21T09:24:28;4.72;;;3.60;;
36105;SDS011;22159;55.736;38.048;2023-02-21T09:26:54;4.32;;;3.80;;
36105;SDS011;22159;55.736;38.048;2023-02-21T09:29:23;4.88;;;4.35;;
36105;SDS011;22159;55.736;38.048;2023-02-21T09:31:49;4.65;;;4.25;;
36105;SDS011;22159;55.736;38.048;2023-02-21T09:34:15;4.28;;;3.55;;
36105;SDS011;22159;55.736;38.048;2023-02-21T09:36:41;4.40;;;4.00;;
36105;SDS011;22159;55.736;38.048;2023-02-21T09:39:08;4.78;;;4.22;;
36105;SDS011;22159;55.736;38.048;2023-02-21T09:41:35;5.22;;;3.97;;
36105;SDS011;22159;55.736;38.048;2023-02-21T09:44:02;4.80;;;3.88;;
36105;SDS011;22159;55.736;38.048;2023-02-21T09:46:38;4.18;;;3.53;;
36105;SDS011;22159;55.736;38.048;2023-02-21T09:49:07;4.20;;;3.80;;
36105;SDS011;22159;55.736;38.048;2023-02-21T09:51:36;4.43;;;3.58;;
36105;SDS011;22159;55.736;38.048;2023-02-21T09:54:05;4.07;;;3.72;;
36105;SDS011;22159;55.736;38.048;2023-02-21T09:56:37;3.80;;;3.50;;
36105;SDS011;22159;55.736;38.048;2023-02-21T09:59:08;4.32;;;3.78;;
36105;SDS011;22159;55.736;38.048;2023-02-21T10:04:10;4.15;;;3.75;;
36105;SDS011;22159;55.736;38.048;2023-02-21T10:07:24;4.20;;;3.80;;
36105;SDS011;22159;55.736;38.048;2023-02-21T10:12:09;5.47;;;3.60;;
36105;SDS011;22159;55.736;38.048;2023-02-21T10:19:54;5.75;;;3.65;;
36105;SDS011;22159;55.736;38.048;2023-02-21T10:22:26;4.05;;;3.67;;
36105;SDS011;22159;55.736;38.048;2023-02-21T10:24:53;4.53;;;3.72;;
36105;SDS011;22159;55.736;38.048;2023-02-21T10:27:20;3.95;;;3.65;;
36105;SDS011;22159;55.736;38.048;2023-02-21T10:29:49;4.72;;;3.90;;
36105;SDS011;22159;55.736;38.048;2023-02-21T10:32:16;4.05;;;3.65;;
36105;SDS011;22159;55.736;38.048;2023-02-21T10:34:42;4.93;;;3.35;;
36105;SDS011;22159;55.736;38.048;2023-02-21T10:42:19;5.00;;;3.67;;
36105;SDS011;22159;55.736;38.048;2023-02-21T10:44:51;3.92;;;3.63;;
36105;SDS011;22159;55.736;38.048;2023-02-21T10:47:18;4.13;;;3.75;;
36105;SDS011;22159;55.736;38.048;2023-02-21T10:50:01;5.20;;;3.55;;
36105;SDS011;22159;55.736;38.048;2023-02-21T10:52:28;5.35;;;4.07;;
36105;SDS011;22159;55.736;38.048;2023-02-21T10:55:02;3.85;;;3.28;;
36105;SDS011;22159;55.736;38.048;2023-02-21T10:57:31;4.07;;;3.53;;
36105;SDS011;22159;55.736;38.048;2023-02-21T10:59:59;4.03;;;3.57;;
36105;SDS011;22159;55.736;38.048;2023-02-21T11:02:38;4.15;;;3.75;;
36105;SDS011;22159;55.736;38.048;2023-02-21T11:05:15;3.95;;;3.63;;
36105;SDS011;22159;55.736;38.048;2023-02-21T11:07:58;3.28;;;2.97;;
36105;SDS011;22159;55.736;38.048;2023-02-21T11:10:32;3.78;;;3.38;;
36105;SDS011;22159;55.736;38.048;2023-02-21T11:13:03;3.72;;;3.20;;
36105;SDS011;22159;55.736;38.048;2023-02-21T11:15:29;4.07;;;3.67;;
36105;SDS011;22159;55.736;38.048;2023-02-21T11:18:02;3.63;;;3.33;;
36105;SDS011;22159;55.736;38.048;2023-02-21T11:20:28;3.88;;;3.47;;
36105;SDS011;22159;55.736;38.048;2023-02-21T11:22:54;4.57;;;3.22;;
36105;SDS011;22159;55.736;38.048;2023-02-21T11:28:03;4.18;;;3.40;;
36105;SDS011;22159;55.736;38.048;2023-02-21T11:30:33;4.32;;;3.92;;
36105;SDS011;22159;55.736;38.048;2023-02-21T11:33:00;3.90;;;3.47;;
36105;SDS011;22159;55.736;38.048;2023-02-21T11:35:31;5.35;;;3.67;;
36105;SDS011;22159;55.736;38.048;2023-02-21T11:40:27;3.63;;;3.33;;
36105;SDS011;22159;55.736;38.048;2023-02-21T11:43:09;6.30;;;3.47;;
36105;SDS011;22159;55.736;38.048;2023-02-21T11:45:36;3.95;;;3.40;;
36105;SDS011;22159;55.736;38.048;2023-02-21T11:48:05;3.92;;;3.30;;
36105;SDS011;22159;55.736;38.048;2023-02-21T11:50:35;6.53;;;4.03;;
36105;SDS011;22159;55.736;38.048;2023-02-21T11:55:53;4.47;;;3.72;;
36105;SDS011;22159;55.736;38.048;2023-02-21T12:00:56;6.82;;;3.58;;
36105;SDS011;22159;55.736;38.048;2023-02-21T12:06:23;3.88;;;3.58;;
36105;SDS011;22159;55.736;38.048;2023-02-21T12:14:08;4.30;;;3.70;;
36105;SDS011;22159;55.736;38.048;2023-02-21T12:29:23;5.10;;;3.90;;
36105;SDS011;22159;55.736;38.048;2023-02-21T12:44:49;5.18;;;3.60;;
36105;SDS011;22159;55.736;38.048;2023-02-21T12:50:02;4.10;;;3.10;;
36105;SDS011;22159;55.736;38.048;2023-02-21T12:55:20;4.25;;;3.53;;
36105;SDS011;22159;55.736;38.048;2023-02-21T12:57:58;4.30;;;3.35;;
36105;SDS011;22159;55.736;38.048;2023-02-21T13:00:26;3.70;;;3.17;;
36105;SDS011;22159;55.736;38.048;2023-02-21T13:05:38;3.60;;;3.30;;
36105;SDS011;22159;55.736;38.048;2023-02-21T13:08:27;4.20;;;3.40;;
36105;SDS011;22159;55.736;38.048;2023-02-21T13:10:52;4.00;;;3.58;;
36105;SDS011;22159;55.736;38.048;2023-02-21T13:13:23;3.47;;;3.17;;
36105;SDS011;22159;55.736;38.048;2023-02-21T13:15:50;4.00;;;3.28;;
36105;SDS011;22159;55.736;38.048;2023-02-21T13:18:23;3.45;;;3.15;;
36105;SDS011;22159;55.736;38.048;2023-02-21T13:20:55;3.83;;;3.53;;
36105;SDS011;22159;55.736;38.048;2023-02-21T13:23:40;3.90;;;3.50;;
36105;SDS011;22159;55.736;38.048;2023-02-21T13:28:33;4.07;;;3.60;;
36105;SDS011;22159;55.736;38.048;2023-02-21T13:31:03;3.35;;;3.05;;
36105;SDS011;22159;55.736;38.048;2023-02-21T13:33:40;3.90;;;3.45;;
36105;SDS011;22159;55.736;38.048;2023-02-21T13:39:01;3.70;;;3.35;;
36105;SDS011;22159;55.736;38.048;2023-02-21T13:41:29;3.50;;;3.20;;
36105;SDS011;22159;55.736;38.048;2023-02-21T13:43:58;4.55;;;3.65;;
36105;SDS011;22159;55.736;38.048;2023-02-21T13:51:49;3.28;;;2.97;;
36105;SDS011;22159;55.736;38.048;2023-02-21T13:54:23;4.18;;;3.38;;
36105;SDS011;22159;55.736;38.048;2023-02-21T13:56:50;4.13;;;3.20;;
36105;SDS011;22159;55.736;38.048;2023-02-21T14:01:49;3.65;;;3.30;;
36105;SDS011;22159;55.736;38.048;2023-02-21T14:07:00;3.83;;;3.50;;
36105;SDS011;22159;55.736;38.048;2023-02-21T14:09:27;4.13;;;3.72;;
36105;SDS011;22159;55.736;38.048;2023-02-21T14:11:53;4.00;;;3.20;;
36105;SDS011;22159;55.736;38.048;2023-02-21T14:16:47;3.53;;;3.22;;
36105;SDS011;22159;55.736;38.048;2023-02-21T14:21:57;6.07;;;3.47;;
36105;SDS011;22159;55.736;38.048;2023-02-21T14:24:25;3.70;;;3.20;;
36105;SDS011;22159;55.736;38.048;2023-02-21T14:26:55;5.20;;;3.40;;
36105;SDS011;22159;55.736;38.048;2023-02-21T14:29:43;3.70;;;3.23;;
36105;SDS011;22159;55.736;38.048;2023-02-21T14:37:12;3.58;;;3.10;;
36105;SDS011;22159;55.736;38.048;2023-02-21T14:39:41;4.10;;;3.30;;
36105;SDS011;22159;55.736;38.048;2023-02-21T14:42:20;4.20;;;3.40;;
36105;SDS011;22159;55.736;38.048;2023-02-21T14:50:11;4.40;;;3.63;;
36105;SDS011;22159;55.736;38.048;2023-02-21T15:02:59;3.78;;;3.38;;
36105;SDS011;22159;55.736;38.048;2023-02-21T15:08:04;3.35;;;3.00;;
36105;SDS011;22159;55.736;38.048;2023-02-21T15:10:38;4.38;;;3.25;;
36105;SDS011;22159;55.736;38.048;2023-02-21T15:13:05;4.07;;;2.90;;
36105;SDS011;22159;55.736;38.048;2023-02-21T15:15:35;3.45;;;3.15;;
36105;SDS011;22159;55.736;38.048;2023-02-21T15:18:03;5.05;;;3.05;;
36105;SDS011;22159;55.736;38.048;2023-02-21T15:20:31;3.92;;;3.03;;
36105;SDS011;22159;55.736;38.048;2023-02-21T15:23:19;3.40;;;3.10;;
36105;SDS011;22159;55.736;38.048;2023-02-21T15:25:54;3.22;;;2.95;;
36105;SDS011;22159;55.736;38.048;2023-02-21T15:28:30;4.05;;;3.00;;
36105;SDS011;22159;55.736;38.048;2023-02-21T15:30:57;4.47;;;3.13;;
36105;SDS011;22159;55.736;38.048;2023-02-21T15:33:24;3.10;;;2.80;;
36105;SDS011;22159;55.736;38.048;2023-02-21T15:35:56;3.42;;;3.08;;
36105;SDS011;22159;55.736;38.048;2023-02-21T15:38:27;4.60;;;3.25;;
36105;SDS011;22159;55.736;38.048;2023-02-21T15:40:55;3.83;;;2.95;;
36105;SDS011;22159;55.736;38.048;2023-02-21T15:43:34;4.25;;;3.20;;
36105;SDS011;22159;55.736;38.048;2023-02-21T15:46:02;3.55;;;3.05;;
36105;SDS011;22159;55.736;38.048;2023-02-21T15:48:29;3.40;;;3.10;;
36105;SDS011;22159;55.736;38.048;2023-02-21T15:50:58;4.53;;;3.30;;
36105;SDS011;22159;55.736;38.048;2023-02-21T15:53:27;3.35;;;2.95;;
36105;SDS011;22159;55.736;38.048;2023-02-21T15:55:53;3.78;;;3.10;;
36105;SDS011;22159;55.736;38.048;2023-02-21T15:58:23;4.22;;;3.40;;
36105;SDS011;22159;55.736;38.048;2023-02-21T16:01:04;4.40;;;2.83;;
36105;SDS011;22159;55.736;38.048;2023-02-21T16:06:10;4.85;;;2.65;;
36105;SDS011;22159;55.736;38.048;2023-02-21T16:08:38;2.95;;;2.65;;
36105;SDS011;22159;55.736;38.048;2023-02-21T16:11:05;3.08;;;2.80;;
36105;SDS011;22159;55.736;38.048;2023-02-21T16:13:37;3.50;;;3.20;;
36105;SDS011;22159;55.736;38.048;2023-02-21T16:16:04;3.20;;;2.90;;
36105;SDS011;22159;55.736;38.048;2023-02-21T16:18:30;4.25;;;3.30;;
36105;SDS011;22159;55.736;38.048;2023-02-21T16:21:00;3.25;;;2.95;;
36105;SDS011;22159;55.736;38.048;2023-02-21T16:24:00;3.70;;;3.30;;
36105;SDS011;22159;55.736;38.048;2023-02-21T16:26:21;3.40;;;3.10;;
36105;SDS011;22159;55.736;38.048;2023-02-21T16:28:51;4.65;;;2.75;;
36105;SDS011;22159;55.736;38.048;2023-02-21T16:31:29;3.65;;;3.17;;
36105;SDS011;22159;55.736;38.048;2023-02-21T16:33:55;3.33;;;3.03;;
36105;SDS011;22159;55.736;38.048;2023-02-21T16:36:23;3.70;;;3.10;;
36105;SDS011;22159;55.736;38.048;2023-02-21T16:38:51;4.10;;;3.05;;
36105;SDS011;22159;55.736;38.048;2023-02-21T16:41:17;3.22;;;2.88;;
36105;SDS011;22159;55.736;38.048;2023-02-21T16:43:43;3.35;;;2.95;;
36105;SDS011;22159;55.736;38.048;2023-02-21T16:46:10;3.78;;;3.03;;
36105;SDS011;22159;55.736;38.048;2023-02-21T16:48:37;3.38;;;3.08;;
36105;SDS011;22159;55.736;38.048;2023-02-21T16:51:04;2.85;;;2.65;;
36105;SDS011;22159;55.736;38.048;2023-02-21T16:53:32;4.82;;;3.15;;
36105;SDS011;22159;55.736;38.048;2023-02-21T16:55:58;3.53;;;3.03;;
36105;SDS011;22159;55.736;38.048;2023-02-21T17:00:54;4.15;;;3.25;;
36105;SDS011;22159;55.736;38.048;2023-02-21T17:03:21;4.43;;;3.37;;
36105;SDS011;22159;55.736;38.048;2023-02-21T17:05:47;3.85;;;3.00;;
36105;SDS011;22159;55.736;38.048;2023-02-21T17:08:15;4.75;;;2.92;;
36105;SDS011;22159;55.736;38.048;2023-02-21T17:10:42;4.13;;;2.90;;
36105;SDS011;22159;55.736;38.048;2023-02-21T17:13:08;4.28;;;3.65;;
36105;SDS011;22159;55.736;38.048;2023-02-21T17:15:34;5.03;;;3.70;;
36105;SDS011;22159;55.736;38.048;2023-02-21T17:18:01;3.72;;;3.10;;
36105;SDS011;22159;55.736;38.048;2023-02-21T17:20:27;4.72;;;3.40;;
36105;SDS011;22159;55.736;38.048;2023-02-21T17:22:54;4.35;;;3.60;;
36105;SDS011;22159;55.736;38.048;2023-02-21T17:25:22;4.90;;;3.88;;